Time;durP1;ratioP1;P1;durP2;ratioP2;P2;SDS_P1;SDS_P2;PMS_P1;PMS_P2;Temp;Humidity;BMP_temperature;BMP_pressure;BME280_temperature;BME280_humidity;BME280_pressure;Samples;Min_cycle;Max_cycle;Signal;HPM_P1;HPM_P2
2022/05/26 00:00:52;;;;;;;1.50;0.90;;;16.90;91.30;;;;;;5024292;28;20525;-76
2022/05/26 00:03:20;;;;;;;1.50;0.90;;;16.80;91.60;;;;;;5023745;28;20483;-76
2022/05/26 00:05:47;;;;;;;1.40;0.90;;;16.80;91.50;;;;;;5022218;28;20478;-76
2022/05/26 00:08:14;;;;;;;1.40;0.90;;;16.80;91.90;;;;;;5021279;28;20999;-76
2022/05/26 00:10:42;;;;;;;1.43;0.90;;;16.80;91.70;;;;;;5022120;28;20474;-76
2022/05/26 00:13:11;;;;;;;1.50;0.90;;;16.80;91.50;;;;;;5020599;28;20498;-77
2022/05/26 00:15:38;;;;;;;1.50;0.90;;;16.80;91.70;;;;;;5024324;28;20463;-77
2022/05/26 00:18:05;;;;;;;1.43;0.90;;;16.80;91.80;;;;;;5024003;28;20522;-77
2022/05/26 00:20:33;;;;;;;1.43;0.97;;;16.70;91.60;;;;;;5026594;28;20474;-76
2022/05/26 00:23:00;;;;;;;1.50;0.90;;;16.80;91.80;;;;;;5020561;28;21032;-77
2022/05/26 00:25:28;;;;;;;1.50;0.90;;;16.70;91.80;;;;;;5026207;28;20525;-76
2022/05/26 00:27:55;;;;;;;1.50;1.00;;;16.80;91.80;;;;;;5027396;28;20463;-76
2022/05/26 00:30:24;;;;;;;1.47;0.90;;;16.70;91.80;;;;;;5023730;28;20459;-77
2022/05/26 00:32:52;;;;;;;1.40;0.90;;;16.70;91.60;;;;;;5025368;28;20505;-76
2022/05/26 00:35:19;;;;;;;1.43;0.90;;;16.70;91.80;;;;;;5025065;28;20491;-77
2022/05/26 00:37:47;;;;;;;1.50;1.00;;;16.70;92.10;;;;;;5026298;28;20499;-77
2022/05/26 00:40:15;;;;;;;1.50;0.90;;;16.60;92.00;;;;;;5026959;28;20835;-76
2022/05/26 00:42:42;;;;;;;1.40;0.90;;;16.60;92.30;;;;;;5026881;28;20618;-77
2022/05/26 00:45:10;;;;;;;1.50;1.00;;;16.60;92.40;;;;;;5030086;28;20895;-77
2022/05/26 00:47:44;;;;;;;1.43;0.90;;;16.60;92.30;;;;;;5026362;28;20680;-77
2022/05/26 00:50:18;;;;;;;1.47;1.00;;;16.60;92.70;;;;;;5026830;28;20858;-76
2022/05/26 00:52:50;;;;;;;1.50;1.00;;;16.60;92.70;;;;;;5024855;28;20527;-76
2022/05/26 00:55:22;;;;;;;1.50;1.00;;;16.60;93.10;;;;;;5025857;28;20471;-77
2022/05/26 00:57:54;;;;;;;1.50;0.90;;;16.60;92.70;;;;;;5015078;28;20487;-77
2022/05/26 01:00:25;;;;;;;1.50;0.90;;;16.60;92.70;;;;;;5027403;28;20482;-77
2022/05/26 01:03:04;;;;;;;1.47;0.90;;;16.60;93.10;;;;;;5025056;28;20510;-77
2022/05/26 01:05:37;;;;;;;1.50;0.90;;;16.60;92.70;;;;;;5027689;28;20495;-76
2022/05/26 01:08:11;;;;;;;1.43;0.90;;;16.60;92.90;;;;;;5006850;28;21155;-77
2022/05/26 01:10:38;;;;;;;1.43;0.90;;;16.60;93.10;;;;;;5026443;28;20503;-77
2022/05/26 01:13:06;;;;;;;1.40;0.90;;;16.60;93.20;;;;;;5010317;28;20479;-77
2022/05/26 01:15:38;;;;;;;1.47;1.00;;;16.60;93.30;;;;;;5026645;28;20483;-77
2022/05/26 01:18:15;;;;;;;1.50;1.00;;;16.50;93.40;;;;;;5027575;28;20598;-78
2022/05/26 01:20:52;;;;;;;1.50;1.00;;;16.50;93.50;;;;;;5021771;28;20528;-77
2022/05/26 01:23:58;;;;;;;1.47;1.00;;;16.50;93.50;;;;;;5013346;28;20470;-77
2022/05/26 01:26:52;;;;;;;1.43;0.90;;;16.60;93.60;;;;;;4934131;28;20812;-77
2022/05/26 01:29:58;;;;;;;1.43;1.00;;;16.60;93.50;;;;;;5021719;28;20483;-78
2022/05/26 01:32:35;;;;;;;1.50;1.00;;;16.60;93.80;;;;;;5028111;28;21031;-78
2022/05/26 01:35:12;;;;;;;1.50;1.00;;;16.60;93.70;;;;;;5020509;28;21099;-78
2022/05/26 01:37:45;;;;;;;1.43;0.90;;;16.60;94.00;;;;;;5022475;28;20479;-77
2022/05/26 01:40:20;;;;;;;1.47;0.90;;;16.50;94.00;;;;;;5025455;28;20586;-77
2022/05/26 01:42:55;;;;;;;1.47;0.90;;;16.50;93.80;;;;;;5027891;28;20494;-77
2022/05/26 01:45:31;;;;;;;1.47;0.90;;;16.60;94.00;;;;;;5022671;28;20472;-78
2022/05/26 01:48:07;;;;;;;1.40;1.00;;;16.60;94.30;;;;;;5032229;28;20470;-77
2022/05/26 01:50:41;;;;;;;1.47;0.90;;;16.60;94.20;;;;;;5034355;28;20474;-77
2022/05/26 01:53:21;;;;;;;1.43;1.00;;;16.60;94.60;;;;;;5026340;28;20513;-78
2022/05/26 01:55:54;;;;;;;1.50;0.90;;;16.50;94.20;;;;;;5028884;28;20467;-77
2022/05/26 01:58:27;;;;;;;1.47;0.97;;;16.50;94.30;;;;;;5027562;28;20510;-78
2022/05/26 02:00:56;;;;;;;1.47;0.90;;;16.50;94.70;;;;;;5022382;28;20935;-78
2022/05/26 02:03:31;;;;;;;1.47;0.90;;;16.50;94.80;;;;;;5023158;28;20524;-77
2022/05/26 02:06:08;;;;;;;1.43;0.90;;;16.50;95.40;;;;;;5024702;28;20470;-76
2022/05/26 02:08:40;;;;;;;1.47;1.00;;;16.50;95.90;;;;;;5025851;28;20478;-77
2022/05/26 02:11:13;;;;;;;1.50;0.90;;;16.40;95.60;;;;;;5027859;28;20471;-77
2022/05/26 02:13:43;;;;;;;1.47;0.90;;;16.40;96.10;;;;;;5024940;28;20459;-76
2022/05/26 02:16:13;;;;;;;1.50;0.93;;;16.40;96.30;;;;;;5025707;28;20468;-76
2022/05/26 02:18:49;;;;;;;1.47;1.00;;;16.40;96.90;;;;;;5029714;28;20519;-77
2022/05/26 02:21:22;;;;;;;1.50;1.00;;;16.40;97.10;;;;;;5026471;28;20988;-77
2022/05/26 02:23:57;;;;;;;1.50;1.00;;;16.30;97.40;;;;;;5012119;28;20463;-77
2022/05/26 02:26:25;;;;;;;1.50;1.00;;;16.30;97.90;;;;;;5023970;28;20462;-77
2022/05/26 02:31:40;;;;;;;1.47;0.90;;;16.30;98.20;;;;;;5023761;28;20529;-77
2022/05/26 02:34:09;;;;;;;1.50;1.00;;;16.30;98.20;;;;;;5015905;28;20479;-77
2022/05/26 02:36:38;;;;;;;1.47;1.00;;;16.30;98.20;;;;;;5024641;28;20925;-78
2022/05/26 02:39:07;;;;;;;1.50;0.90;;;16.30;98.20;;;;;;5026971;28;20491;-78
2022/05/26 02:41:35;;;;;;;1.50;0.90;;;16.30;97.90;;;;;;5022100;28;20943;-78
2022/05/26 02:44:04;;;;;;;1.50;0.90;;;16.20;98.10;;;;;;5029958;28;20474;-78
2022/05/26 02:46:48;;;;;;;1.43;0.90;;;16.20;98.20;;;;;;5029017;28;20463;-78
2022/05/26 02:49:31;;;;;;;1.50;1.00;;;16.30;98.20;;;;;;5028668;28;20475;-78
2022/05/26 02:52:06;;;;;;;1.47;1.00;;;16.30;98.10;;;;;;5028721;28;20470;-78
2022/05/26 02:54:46;;;;;;;1.50;1.00;;;16.30;98.00;;;;;;5029234;28;20972;-78
2022/05/26 02:57:21;;;;;;;1.50;1.00;;;16.30;97.60;;;;;;5028134;28;20463;-79
2022/05/26 02:59:56;;;;;;;1.50;0.90;;;16.30;98.00;;;;;;5028255;28;20590;-78
2022/05/26 03:02:29;;;;;;;1.47;0.90;;;16.30;98.00;;;;;;5014735;28;20864;-78
2022/05/26 03:05:05;;;;;;;1.50;0.90;;;16.30;98.20;;;;;;5016507;28;20513;-78
2022/05/26 03:07:35;;;;;;;1.43;0.90;;;16.20;98.00;;;;;;5025119;28;20887;-78
2022/05/26 03:10:03;;;;;;;1.47;0.90;;;16.20;98.20;;;;;;5022236;28;20486;-78
2022/05/26 03:12:35;;;;;;;1.50;1.10;;;16.20;98.20;;;;;;5027891;28;20497;-78
2022/05/26 03:15:04;;;;;;;1.47;0.93;;;16.20;98.20;;;;;;5029131;28;20463;-78
2022/05/26 03:17:31;;;;;;;1.50;1.13;;;16.20;98.20;;;;;;5028042;28;20902;-78
2022/05/26 03:19:59;;;;;;;1.47;1.00;;;16.20;98.20;;;;;;5024411;28;20487;-78
2022/05/26 03:22:26;;;;;;;1.47;0.90;;;16.20;98.10;;;;;;5027559;28;20460;-77
2022/05/26 03:24:54;;;;;;;1.47;0.90;;;16.20;98.20;;;;;;5029449;28;20482;-78
2022/05/26 03:27:21;;;;;;;1.50;1.00;;;16.20;98.20;;;;;;5022875;28;20486;-78
2022/05/26 03:29:48;;;;;;;1.47;1.00;;;16.20;98.20;;;;;;5015088;28;20488;-77
2022/05/26 03:32:15;;;;;;;1.50;0.90;;;16.20;98.20;;;;;;5025554;28;20546;-77
2022/05/26 03:43:00;;;;;;;1.47;0.90;;;16.20;98.20;;;;;;5027122;28;20458;-78
2022/05/26 03:45:28;;;;;;;1.50;1.00;;;16.20;98.20;;;;;;5027520;28;20467;-78
2022/05/26 03:47:55;;;;;;;1.50;1.00;;;16.20;98.20;;;;;;5026980;28;20594;-78
2022/05/26 03:50:22;;;;;;;1.50;1.00;;;16.20;98.20;;;;;;5029282;28;20463;-78
2022/05/26 03:52:51;;;;;;;1.50;1.00;;;16.20;98.20;;;;;;5008038;28;20574;-78
2022/05/26 03:55:18;;;;;;;1.50;0.97;;;16.20;98.20;;;;;;5032594;28;20550;-78
2022/05/26 03:57:46;;;;;;;1.47;0.90;;;16.20;98.20;;;;;;5032059;28;20493;-77
2022/05/26 04:00:14;;;;;;;1.50;0.90;;;16.20;98.20;;;;;;5032080;28;20499;-78
2022/05/26 04:02:41;;;;;;;1.47;1.00;;;16.20;98.20;;;;;;5020168;28;20549;-77
2022/05/26 04:05:11;;;;;;;1.50;1.00;;;16.20;98.20;;;;;;5025685;28;21031;-77
2022/05/26 04:07:39;;;;;;;1.50;0.90;;;16.20;98.20;;;;;;5026296;28;20492;-78
2022/05/26 04:10:10;;;;;;;1.47;1.00;;;16.20;98.20;;;;;;5024200;28;20566;-78
2022/05/26 04:12:37;;;;;;;1.47;0.90;;;16.10;98.20;;;;;;5025782;28;20894;-77
2022/05/26 04:15:06;;;;;;;1.50;1.00;;;16.10;98.20;;;;;;5032317;28;20483;-78
2022/05/26 04:17:33;;;;;;;1.43;0.90;;;16.10;98.20;;;;;;5031124;28;20804;-77
2022/05/26 04:20:01;;;;;;;1.43;0.90;;;16.10;98.20;;;;;;5032340;28;20490;-78
2022/05/26 04:22:28;;;;;;;1.50;1.00;;;16.20;98.20;;;;;;5026077;28;20521;-78
2022/05/26 04:24:57;;;;;;;1.50;0.90;;;16.20;98.20;;;;;;5032862;28;20754;-77
2022/05/26 04:27:28;;;;;;;1.50;0.97;;;16.20;98.20;;;;;;5032264;28;20841;-78
2022/05/26 04:29:55;;;;;;;1.47;0.93;;;16.20;98.20;;;;;;5030936;28;20487;-77
2022/05/26 04:32:23;;;;;;;1.50;1.00;;;16.20;98.20;;;;;;5024211;28;20526;-77
2022/05/26 04:34:51;;;;;;;1.43;1.00;;;16.10;98.20;;;;;;5024827;28;20463;-76
2022/05/26 04:37:20;;;;;;;1.50;0.90;;;16.10;98.20;;;;;;5022130;28;20567;-77
2022/05/26 04:39:47;;;;;;;1.50;1.00;;;16.10;98.20;;;;;;5028646;28;20490;-77
2022/05/26 04:42:14;;;;;;;1.50;1.20;;;16.10;98.20;;;;;;5029787;28;21137;-77
2022/05/26 04:44:44;;;;;;;1.50;0.90;;;16.00;98.20;;;;;;5031510;28;20951;-77
2022/05/26 04:47:12;;;;;;;1.47;0.93;;;16.00;98.20;;;;;;5031031;28;20955;-77
2022/05/26 04:49:40;;;;;;;1.43;0.90;;;16.00;98.20;;;;;;5029482;28;20542;-77
2022/05/26 04:52:08;;;;;;;1.50;0.90;;;16.00;98.20;;;;;;5030317;28;20948;-77
2022/05/26 04:54:36;;;;;;;1.47;0.97;;;15.90;98.20;;;;;;5026797;28;20460;-78
2022/05/26 04:57:04;;;;;;;1.50;0.90;;;15.90;98.20;;;;;;5022397;28;20471;-78
2022/05/26 04:59:32;;;;;;;1.47;0.97;;;15.90;98.20;;;;;;5026225;28;20995;-78
2022/05/26 05:02:01;;;;;;;1.47;1.00;;;16.00;98.20;;;;;;5019602;28;20490;-78
2022/05/26 05:04:30;;;;;;;1.50;1.00;;;16.00;98.20;;;;;;5027880;28;21152;-78
2022/05/26 05:06:57;;;;;;;1.50;0.90;;;16.00;98.20;;;;;;5020341;28;20648;-77
2022/05/26 05:09:25;;;;;;;1.50;1.10;;;16.10;98.20;;;;;;5026655;28;20537;-78
2022/05/26 05:11:52;;;;;;;1.47;0.90;;;16.10;98.20;;;;;;5029779;28;20517;-78
2022/05/26 05:14:20;;;;;;;1.50;1.00;;;16.10;98.20;;;;;;5029324;28;20463;-79
2022/05/26 05:16:47;;;;;;;1.50;1.00;;;16.20;98.20;;;;;;5022300;28;20924;-78
2022/05/26 05:19:17;;;;;;;1.50;1.00;;;16.20;98.20;;;;;;5030731;28;20862;-79
2022/05/26 05:21:49;;;;;;;1.50;1.00;;;16.20;98.20;;;;;;5029739;28;21044;-78
2022/05/26 05:24:21;;;;;;;1.50;0.90;;;16.30;98.20;;;;;;5031637;28;20471;-78
2022/05/26 05:26:52;;;;;;;1.40;0.90;;;16.30;98.20;;;;;;5016750;28;20475;-78
2022/05/26 05:29:23;;;;;;;1.50;1.00;;;16.40;98.20;;;;;;5022217;28;20919;-78
2022/05/26 05:31:55;;;;;;;1.43;1.00;;;16.50;98.20;;;;;;5030072;28;20463;-79
2022/05/26 05:34:29;;;;;;;1.50;1.00;;;16.50;98.20;;;;;;5031371;28;20537;-78
2022/05/26 05:36:56;;;;;;;1.50;0.90;;;16.50;98.20;;;;;;5020785;28;20464;-78
2022/05/26 05:39:25;;;;;;;1.50;0.90;;;16.60;98.20;;;;;;5026661;28;20537;-78
2022/05/26 05:41:54;;;;;;;1.50;1.00;;;16.60;98.20;;;;;;5013516;28;20468;-78
2022/05/26 05:44:21;;;;;;;1.70;1.13;;;16.60;98.20;;;;;;5031240;28;20967;-78
2022/05/26 05:46:58;;;;;;;1.50;1.00;;;16.70;98.20;;;;;;5030467;28;20943;-78
2022/05/26 05:49:28;;;;;;;1.43;0.90;;;16.70;98.20;;;;;;5030030;28;20511;-78
2022/05/26 05:51:57;;;;;;;1.50;1.00;;;16.80;98.20;;;;;;5025634;28;21031;-78
2022/05/26 05:54:24;;;;;;;1.50;1.00;;;16.90;98.20;;;;;;5024431;28;20544;-79
2022/05/26 05:56:51;;;;;;;1.50;1.00;;;17.00;98.20;;;;;;5023101;28;20459;-78
2022/05/26 05:59:18;;;;;;;1.50;0.90;;;17.00;98.20;;;;;;5031381;28;20498;-78
2022/05/26 06:01:45;;;;;;;1.50;0.90;;;17.10;98.20;;;;;;5017949;28;20511;-77
2022/05/26 06:04:13;;;;;;;1.50;1.00;;;17.20;98.20;;;;;;5031522;28;20860;-77
2022/05/26 06:06:43;;;;;;;1.50;1.00;;;17.20;98.20;;;;;;5017881;28;20467;-77
2022/05/26 06:09:13;;;;;;;1.43;1.00;;;17.30;98.20;;;;;;5020959;28;20480;-79
2022/05/26 06:11:40;;;;;;;1.50;1.00;;;17.30;98.20;;;;;;5020468;28;20517;-78
2022/05/26 06:14:08;;;;;;;1.47;0.90;;;17.40;98.20;;;;;;5031317;28;20542;-78
2022/05/26 06:16:35;;;;;;;1.47;0.90;;;17.60;98.20;;;;;;5024494;28;21003;-77
2022/05/26 06:19:02;;;;;;;1.50;1.00;;;17.70;97.70;;;;;;5030479;28;20541;-78
2022/05/26 06:21:29;;;;;;;1.60;1.10;;;17.80;97.60;;;;;;5023904;28;20468;-78
2022/05/26 06:23:57;;;;;;;1.60;1.37;;;18.00;96.60;;;;;;5027102;28;21044;-79
2022/05/26 06:26:25;;;;;;;1.47;0.93;;;18.10;96.00;;;;;;5023514;28;20503;-79
2022/05/26 06:31:38;;;;;;;1.50;0.90;;;18.20;95.20;;;;;;5016974;28;20587;-79
2022/05/26 06:39:35;;;;;;;1.50;1.00;;;18.40;95.00;;;;;;5022992;28;20518;-79
2022/05/26 06:42:09;;;;;;;1.50;0.90;;;18.40;94.80;;;;;;5017867;28;20494;-79
2022/05/26 06:44:39;;;;;;;1.50;1.00;;;18.50;94.50;;;;;;5031696;28;20551;-79
2022/05/26 06:47:08;;;;;;;1.47;0.90;;;18.50;94.00;;;;;;5031524;28;20629;-79
2022/05/26 06:49:36;;;;;;;1.50;1.00;;;18.50;94.60;;;;;;5029603;28;20564;-80
2022/05/26 06:52:04;;;;;;;1.50;0.90;;;18.50;94.70;;;;;;5030516;28;20544;-79
2022/05/26 06:54:33;;;;;;;1.40;0.90;;;18.50;94.70;;;;;;5032544;28;20478;-79
2022/05/26 06:57:02;;;;;;;1.50;1.00;;;18.60;94.30;;;;;;5030866;28;20459;-79
2022/05/26 06:59:29;;;;;;;1.50;0.90;;;18.70;94.20;;;;;;5031261;28;20506;-79
2022/05/26 07:01:56;;;;;;;1.43;0.90;;;18.80;94.10;;;;;;5008736;28;20538;-79
2022/05/26 07:04:23;;;;;;;1.47;0.90;;;19.00;93.30;;;;;;5006156;28;20556;-79
2022/05/26 07:06:52;;;;;;;1.50;0.90;;;19.00;92.60;;;;;;5003710;28;20460;-79
2022/05/26 07:09:20;;;;;;;1.50;0.90;;;19.20;93.10;;;;;;5028933;22;20978;-78
2022/05/26 07:11:47;;;;;;;1.50;0.90;;;19.50;92.80;;;;;;5024460;28;20558;-76
2022/05/26 07:14:17;;;;;;;1.50;0.90;;;19.80;90.90;;;;;;5027070;28;20550;-76
2022/05/26 07:16:45;;;;;;;1.50;0.90;;;19.80;90.10;;;;;;5026850;28;20455;-77
2022/05/26 07:19:13;;;;;;;1.50;0.93;;;19.80;90.00;;;;;;5027610;28;20876;-76
2022/05/26 07:21:43;;;;;;;1.47;0.90;;;19.80;90.20;;;;;;5023286;28;20513;-77
2022/05/26 07:24:11;;;;;;;1.50;0.90;;;20.00;90.50;;;;;;5020893;28;20904;-76
2022/05/26 07:26:38;;;;;;;1.50;0.90;;;20.10;90.00;;;;;;5026086;28;20463;-77
2022/05/26 07:29:05;;;;;;;1.50;0.90;;;20.20;89.60;;;;;;5022937;28;20919;-77
2022/05/26 07:31:33;;;;;;;1.47;0.90;;;20.40;89.40;;;;;;5023724;28;20554;-77
2022/05/26 07:34:00;;;;;;;1.50;0.90;;;20.50;88.80;;;;;;5021563;28;20491;-76
2022/05/26 07:42:00;;;;;;;1.50;0.90;;;21.00;87.20;;;;;;5025772;28;20582;-77
2022/05/26 07:44:29;;;;;;;1.50;0.90;;;21.30;87.30;;;;;;5027035;28;20497;-76
2022/05/26 07:46:57;;;;;;;1.50;0.90;;;21.50;86.20;;;;;;5026613;28;20895;-77
2022/05/26 07:49:25;;;;;;;1.50;0.90;;;21.60;85.60;;;;;;5025632;28;20509;-76
2022/05/26 07:51:51;;;;;;;1.50;0.87;;;21.70;84.50;;;;;;5025330;28;20471;-77
2022/05/26 07:54:18;;;;;;;1.50;0.90;;;21.70;84.70;;;;;;5026712;28;21043;-77
2022/05/26 07:56:45;;;;;;;1.50;0.90;;;21.70;84.50;;;;;;5026874;28;20717;-77
2022/05/26 07:59:12;;;;;;;1.50;0.90;;;21.70;84.50;;;;;;5027009;28;20945;-77
2022/05/26 08:01:40;;;;;;;1.50;0.90;;;21.70;84.90;;;;;;5022558;28;20550;-77
2022/05/26 08:04:08;;;;;;;1.50;0.90;;;21.70;84.40;;;;;;5013047;28;20464;-77
2022/05/26 08:06:36;;;;;;;1.50;0.90;;;21.70;84.60;;;;;;5016420;28;21026;-77
2022/05/26 08:09:03;;;;;;;1.50;0.90;;;21.90;84.60;;;;;;5023778;28;20475;-77
2022/05/26 08:11:30;;;;;;;1.50;0.90;;;22.20;83.10;;;;;;5008883;28;20464;-77
2022/05/26 08:13:57;;;;;;;1.50;0.90;;;22.30;82.50;;;;;;5021266;28;20517;-77
2022/05/26 08:16:24;;;;;;;1.47;0.90;;;22.20;81.50;;;;;;5013940;28;20716;-76
2022/05/26 08:18:51;;;;;;;1.50;0.90;;;22.10;82.30;;;;;;5020792;28;20603;-77
2022/05/26 08:21:19;;;;;;;1.47;0.90;;;21.90;83.10;;;;;;5017275;28;20551;-77
2022/05/26 08:23:47;;;;;;;1.50;0.90;;;21.80;83.70;;;;;;5021834;28;20899;-77
2022/05/26 08:26:14;;;;;;;1.50;0.83;;;21.80;84.10;;;;;;5021544;28;20459;-78
2022/05/26 08:28:42;;;;;;;1.50;0.90;;;21.90;83.40;;;;;;5020933;28;20494;-78
2022/05/26 08:31:10;;;;;;;1.40;0.90;;;22.10;83.00;;;;;;5007955;28;20483;-77
2022/05/26 08:33:37;;;;;;;1.47;0.90;;;22.20;83.10;;;;;;5014550;28;20464;-77
2022/05/26 08:36:07;;;;;;;1.50;1.00;;;22.40;83.60;;;;;;5007651;28;20474;-78
2022/05/26 08:38:36;;;;;;;1.50;0.90;;;22.50;82.20;;;;;;5003006;28;20535;-78
2022/05/26 08:41:05;;;;;;;1.43;0.90;;;22.70;80.70;;;;;;4995367;28;20586;-78
2022/05/26 08:43:37;;;;;;;1.47;0.90;;;22.80;80.70;;;;;;5007818;28;20919;-77
2022/05/26 08:46:08;;;;;;;1.50;0.90;;;22.80;80.10;;;;;;5007838;28;20460;-78
2022/05/26 08:48:49;;;;;;;1.47;0.90;;;22.70;80.60;;;;;;5006083;28;20474;-77
2022/05/26 08:51:24;;;;;;;1.50;0.90;;;22.60;81.10;;;;;;5008300;28;20471;-78
2022/05/26 08:53:54;;;;;;;1.40;0.90;;;22.40;81.00;;;;;;5011698;28;20962;-77
2022/05/26 08:56:24;;;;;;;1.40;0.90;;;22.40;81.20;;;;;;5010332;28;20567;-77
2022/05/26 08:59:03;;;;;;;1.47;0.90;;;22.30;81.20;;;;;;5010466;28;20933;-77
2022/05/26 09:01:33;;;;;;;1.50;0.90;;;22.20;82.40;;;;;;5006685;28;20491;-77
2022/05/26 09:04:01;;;;;;;1.47;0.90;;;22.20;81.80;;;;;;5011158;28;20468;-77
2022/05/26 09:06:30;;;;;;;1.43;0.90;;;22.30;81.70;;;;;;5007834;28;20480;-77
2022/05/26 09:14:38;;;;;;;1.43;0.90;;;23.00;79.20;;;;;;4995786;28;20527;-77
2022/05/26 09:17:08;;;;;;;1.47;0.90;;;23.50;78.70;;;;;;5002428;28;20976;-79
2022/05/26 09:19:50;;;;;;;1.50;0.90;;;23.80;77.80;;;;;;5002062;28;20523;-79
2022/05/26 09:22:30;;;;;;;1.50;1.03;;;24.20;76.80;;;;;;5004235;28;20494;-77
2022/05/26 09:25:00;;;;;;;1.50;0.90;;;24.30;76.40;;;;;;5007410;28;20518;-78
2022/05/26 09:27:30;;;;;;;1.50;0.90;;;24.20;77.00;;;;;;5006743;28;20456;-77
2022/05/26 09:30:24;;;;;;;1.47;0.87;;;24.40;77.50;;;;;;5005740;28;20488;-78
2022/05/26 09:32:52;;;;;;;1.47;0.90;;;24.60;75.80;;;;;;5006498;28;20771;-78
2022/05/26 09:35:27;;;;;;;1.40;0.87;;;24.80;75.40;;;;;;5001996;28;20765;-78
2022/05/26 09:37:57;;;;;;;1.50;0.90;;;25.10;75.80;;;;;;5011272;28;20479;-77
2022/05/26 09:40:30;;;;;;;1.50;0.90;;;25.40;74.80;;;;;;5023743;28;21062;-78
2022/05/26 09:43:02;;;;;;;1.50;0.90;;;25.60;73.60;;;;;;5018043;28;20472;-77
2022/05/26 09:45:37;;;;;;;2.10;1.60;;;25.70;72.40;;;;;;5026471;28;20467;-78
2022/05/26 09:48:15;;;;;;;1.50;0.80;;;25.70;72.60;;;;;;5024570;28;20614;-78
2022/05/26 09:50:50;;;;;;;1.50;0.80;;;25.80;71.60;;;;;;5025138;28;20515;-79
2022/05/26 09:53:30;;;;;;;1.50;0.80;;;25.90;71.40;;;;;;5024435;28;20495;-78
2022/05/26 09:56:00;;;;;;;1.40;0.80;;;25.70;71.40;;;;;;5027035;28;20471;-80
2022/05/26 09:58:30;;;;;;;1.47;0.80;;;25.50;72.70;;;;;;5020898;28;20468;-78
2022/05/26 10:00:59;;;;;;;1.50;1.00;;;25.30;72.90;;;;;;5014175;28;20495;-78
2022/05/26 10:03:38;;;;;;;1.50;0.80;;;25.30;72.00;;;;;;5024845;28;20589;-78
2022/05/26 10:06:26;;;;;;;1.40;0.80;;;25.40;71.70;;;;;;5019011;28;20468;-77
2022/05/26 10:09:06;;;;;;;1.50;0.80;;;25.60;71.40;;;;;;5017755;28;20626;-79
2022/05/26 10:11:50;;;;;;;1.47;0.80;;;25.60;70.50;;;;;;5023908;28;20570;-78
2022/05/26 10:14:55;;;;;;;1.43;0.80;;;25.70;70.30;;;;;;5026225;28;20724;-79
2022/05/26 10:17:35;;;;;;;1.43;0.80;;;26.00;70.60;;;;;;5002721;28;20463;-78
2022/05/26 10:20:12;;;;;;;1.50;0.80;;;26.20;70.10;;;;;;5022154;28;20582;-79
2022/05/26 10:22:49;;;;;;;1.47;0.80;;;26.50;69.60;;;;;;5011531;28;20490;-76
2022/05/26 10:25:28;;;;;;;1.43;0.80;;;26.50;69.20;;;;;;5025049;28;20473;-78
2022/05/26 10:28:24;;;;;;;1.40;0.80;;;26.20;69.30;;;;;;5019445;28;20491;-79
2022/05/26 10:31:00;;;;;;;1.47;0.80;;;26.30;69.50;;;;;;5017216;28;21007;-78
2022/05/26 10:33:52;;;;;;;1.50;0.87;;;26.10;69.20;;;;;;5021724;28;20663;-80
2022/05/26 10:36:24;;;;;;;1.43;0.90;;;25.90;69.60;;;;;;5019230;28;20989;-78
2022/05/26 10:39:08;;;;;;;1.40;0.80;;;26.00;70.10;;;;;;5017775;28;20802;-77
2022/05/26 10:41:41;;;;;;;1.40;0.80;;;26.30;68.80;;;;;;5023039;28;20570;-77
2022/05/26 10:44:18;;;;;;;1.47;0.80;;;26.50;69.10;;;;;;5022331;28;20466;-78
2022/05/26 10:46:51;;;;;;;1.50;0.90;;;26.60;68.30;;;;;;5018076;28;20472;-77
2022/05/26 10:49:23;;;;;;;1.40;0.80;;;26.40;67.80;;;;;;5022252;28;20502;-81
2022/05/26 10:51:55;;;;;;;1.40;0.80;;;26.20;68.80;;;;;;5024768;28;20500;-78
2022/05/26 10:54:33;;;;;;;1.47;0.90;;;26.00;68.60;;;;;;5020070;28;20895;-78
2022/05/26 10:57:06;;;;;;;1.40;0.80;;;25.80;69.50;;;;;;5019146;28;20467;-78
2022/05/26 10:59:39;;;;;;;1.40;0.80;;;25.80;69.50;;;;;;5023032;28;21029;-78
2022/05/26 11:02:15;;;;;;;1.40;0.90;;;25.70;70.10;;;;;;5023913;28;20551;-79
2022/05/26 11:04:49;;;;;;;1.50;0.80;;;25.60;70.40;;;;;;5019550;28;20957;-79
2022/05/26 11:07:21;;;;;;;1.40;0.80;;;25.60;70.90;;;;;;5018782;28;20915;-79
2022/05/26 11:09:53;;;;;;;1.40;0.80;;;26.10;70.40;;;;;;5022785;28;20491;-79
2022/05/26 11:12:29;;;;;;;1.40;0.80;;;26.40;68.00;;;;;;5017914;28;20838;-79
2022/05/26 11:17:57;;;;;;;1.47;0.80;;;26.30;66.90;;;;;;4989901;28;20893;-79
2022/05/26 11:20:28;;;;;;;1.50;0.90;;;25.70;67.70;;;;;;5020253;28;20511;-79
2022/05/26 11:23:02;;;;;;;1.50;0.90;;;25.30;68.40;;;;;;5009781;28;20599;-78
2022/05/26 11:25:32;;;;;;;1.43;0.80;;;25.00;69.70;;;;;;5019309;28;20471;-79
2022/05/26 11:28:05;;;;;;;1.43;0.80;;;24.70;70.60;;;;;;5029254;28;20478;-79
2022/05/26 11:36:21;;;;;;;1.50;0.90;;;25.40;70.50;;;;;;5012185;28;20505;-79
2022/05/26 11:38:51;;;;;;;1.50;1.00;;;25.80;69.70;;;;;;5036406;28;20463;-78
2022/05/26 11:41:30;;;;;;;1.50;0.83;;;26.00;69.00;;;;;;5023772;28;20479;-80
2022/05/26 11:44:04;;;;;;;1.40;0.80;;;25.80;67.20;;;;;;5023666;28;20836;-80
2022/05/26 11:46:56;;;;;;;1.50;0.80;;;25.70;67.50;;;;;;5019182;28;20473;-77
2022/05/26 11:49:56;;;;;;;1.43;0.90;;;25.80;68.20;;;;;;5019651;28;20479;-78
2022/05/26 11:52:26;;;;;;;1.40;0.90;;;25.90;68.10;;;;;;5022015;28;20467;-79
2022/05/26 11:55:18;;;;;;;1.40;0.90;;;25.80;67.50;;;;;;5026889;28;20513;-78
2022/05/26 11:57:53;;;;;;;1.40;0.80;;;25.50;68.10;;;;;;5004988;28;20615;-79
2022/05/26 12:00:24;;;;;;;1.47;0.80;;;25.00;68.30;;;;;;5023184;28;20578;-80
2022/05/26 12:03:28;;;;;;;1.50;0.80;;;24.60;70.10;;;;;;5022170;28;20466;-79
2022/05/26 12:06:12;;;;;;;1.43;0.87;;;24.10;71.00;;;;;;5009188;28;21047;-79
2022/05/26 12:08:46;;;;;;;1.50;0.90;;;23.80;70.90;;;;;;5038388;28;20466;-80
2022/05/26 12:11:17;;;;;;;1.43;0.80;;;23.60;71.90;;;;;;5019491;28;20501;-79
2022/05/26 12:13:44;;;;;;;1.40;0.80;;;23.70;71.80;;;;;;5027799;28;20471;-80
2022/05/26 12:16:26;;;;;;;1.43;0.90;;;23.80;71.80;;;;;;5029221;28;20519;-78
2022/05/26 12:18:57;;;;;;;1.47;0.90;;;24.00;71.70;;;;;;5024216;28;20473;-79
2022/05/26 12:21:44;;;;;;;1.43;0.90;;;24.00;71.70;;;;;;5023442;28;20580;-79
2022/05/26 12:24:49;;;;;;;1.47;0.90;;;24.00;71.40;;;;;;5030431;28;20550;-79
2022/05/26 12:27:56;;;;;;;1.47;0.90;;;23.80;72.40;;;;;;5015814;28;20567;-79
2022/05/26 12:31:14;;;;;;;1.47;0.87;;;23.70;73.70;;;;;;5029366;28;21060;-80
2022/05/26 12:34:25;;;;;;;1.43;0.90;;;23.80;73.00;;;;;;5021416;28;20517;-79
2022/05/26 12:37:02;;;;;;;1.43;0.80;;;23.90;72.60;;;;;;5018018;28;20549;-79
2022/05/26 12:40:08;;;;;;;1.50;1.10;;;24.10;72.20;;;;;;5036284;28;20540;-79
2022/05/26 12:42:50;;;;;;;1.50;0.90;;;24.30;71.30;;;;;;5023458;28;20505;-79
2022/05/26 12:45:30;;;;;;;1.43;0.90;;;24.50;70.50;;;;;;5030532;28;20820;-80
2022/05/26 12:48:32;;;;;;;1.47;0.90;;;24.50;70.60;;;;;;5028020;28;21215;-79
2022/05/26 12:51:09;;;;;;;1.47;0.90;;;24.40;70.80;;;;;;5015496;28;21166;-80
2022/05/26 12:53:39;;;;;;;1.47;0.80;;;24.30;70.90;;;;;;5030929;28;20534;-79
2022/05/26 12:56:12;;;;;;;1.47;0.90;;;24.30;71.90;;;;;;5030047;28;21837;-79
2022/05/26 12:58:43;;;;;;;1.47;0.80;;;24.70;71.30;;;;;;5026679;28;20462;-81
2022/05/26 13:01:14;;;;;;;1.47;0.90;;;25.20;69.50;;;;;;5028344;28;20513;-80
2022/05/26 13:03:44;;;;;;;1.47;0.90;;;25.60;67.90;;;;;;5025954;28;20463;-80
2022/05/26 13:06:17;;;;;;;1.47;0.90;;;26.00;68.30;;;;;;5019035;28;20460;-78
2022/05/26 13:08:50;;;;;;;1.40;0.90;;;26.20;66.90;;;;;;5017416;28;20459;-79
2022/05/26 13:11:18;;;;;;;1.47;0.80;;;26.20;67.20;;;;;;5026535;28;20455;-78
2022/05/26 13:13:49;;;;;;;1.47;0.80;;;26.20;67.20;;;;;;5028479;28;20831;-79
2022/05/26 13:16:25;;;;;;;1.50;0.90;;;26.30;66.50;;;;;;5027070;28;21010;-78
2022/05/26 13:18:53;;;;;;;1.40;0.80;;;26.40;65.50;;;;;;5022110;28;20471;-79
2022/05/26 13:21:24;;;;;;;1.40;0.80;;;26.40;65.20;;;;;;5025268;28;20489;-79
2022/05/26 13:23:52;;;;;;;1.43;0.80;;;26.60;65.80;;;;;;5027694;28;20470;-79
2022/05/26 13:26:20;;;;;;;1.47;0.80;;;26.80;65.90;;;;;;5022568;28;21058;-79
2022/05/26 13:28:49;;;;;;;1.50;0.80;;;27.10;66.70;;;;;;5025472;28;20726;-78
2022/05/26 13:34:05;;;;;;;1.40;0.80;;;27.50;64.70;;;;;;5026416;28;20446;-79
2022/05/26 13:36:36;;;;;;;1.47;0.80;;;27.70;63.80;;;;;;5016802;28;20501;-79
2022/05/26 13:39:09;;;;;;;1.40;0.80;;;27.80;63.80;;;;;;5026441;28;20890;-79
2022/05/26 13:41:37;;;;;;;1.40;0.80;;;27.50;63.10;;;;;;5011642;28;20921;-78
2022/05/26 13:44:07;;;;;;;1.47;0.90;;;27.10;63.80;;;;;;5026027;28;21006;-79
2022/05/26 13:46:38;;;;;;;1.50;0.80;;;26.90;63.70;;;;;;5024558;28;20902;-78
2022/05/26 13:49:20;;;;;;;1.40;0.80;;;27.00;63.90;;;;;;5026816;28;20524;-80
2022/05/26 13:51:51;;;;;;;1.43;0.87;;;27.20;63.70;;;;;;5020703;28;20464;-78
2022/05/26 13:54:38;;;;;;;1.43;0.90;;;27.40;64.20;;;;;;5022495;28;20470;-78
2022/05/26 13:57:18;;;;;;;1.47;0.80;;;27.60;61.90;;;;;;5014542;28;20466;-79